Time;durP1;ratioP1;P1;durP2;ratioP2;P2;SDS_P1;SDS_P2;PMS_P1;PMS_P2;Temp;Humidity;BMP_temperature;BMP_pressure;BME280_temperature;BME280_humidity;BME280_pressure;Samples;Min_cycle;Max_cycle;Signal;HPM_P1;HPM_P2
2022/03/12 00:00:30;;;;;;;;;;;;;;;4.40;69.03;101909.03;6329174;22;1901;-96
2022/03/12 00:02:58;;;;;;;;;;;;;;;4.40;68.95;101900.22;6300312;22;1470;-96
2022/03/12 00:05:35;;;;;;;;;;;;;;;4.41;68.81;101901.88;6302591;22;1278;-96
2022/03/12 00:08:05;;;;;;;;;;;;;;;4.40;68.95;101901.03;6303776;22;1289;-96
2022/03/12 00:10:41;;;;;;;;;;;;;;;4.38;68.97;101903.00;6302362;22;1060;-96
2022/03/12 00:13:13;;;;;;;;;;;;;;;4.39;68.89;101910.03;6302574;22;1172;-96
2022/03/12 00:15:51;;;;;;;;;;;;;;;4.37;68.87;101901.34;6303980;22;1301;-96
2022/03/12 00:18:25;;;;;;;;;;;;;;;4.39;68.61;101899.38;6303034;22;1357;-96
2022/03/12 00:20:58;;;;;;;;;;;;;;;4.38;68.68;101892.34;6303551;22;1319;-96
2022/03/12 00:28:56;;;;;;;;;;;;;;;4.36;68.47;101904.16;6307131;22;1297;-96
2022/03/12 00:31:26;;;;;;;;;;;;;;;4.37;68.45;101897.84;6304887;22;1333;-96
2022/03/12 00:33:56;;;;;;;;;;;;;;;4.37;68.46;101898.66;6280261;22;1199;-96
2022/03/12 00:36:28;;;;;;;;;;;;;;;4.37;68.56;101898.66;6305607;22;1352;-96
2022/03/12 00:38:57;;;;;;;;;;;;;;;4.39;68.34;101896.72;6332962;22;1897;-96
2022/03/12 00:41:26;;;;;;;;;;;;;;;4.36;68.36;101889.00;6305297;22;1545;-96
2022/03/12 00:46:41;;;;;;;;;;;;;;;4.37;68.68;101887.16;6305693;22;1302;-96
2022/03/12 00:49:08;;;;;;;;;;;;;;;4.37;68.23;101887.16;6305142;22;1496;-96
2022/03/12 00:51:38;;;;;;;;;;;;;;;4.37;68.22;101887.16;6303942;22;1161;-96
2022/03/12 00:54:18;;;;;;;;;;;;;;;4.37;67.89;101882.66;6305724;22;1190;-96
2022/03/12 00:59:38;;;;;;;;;;;;;;;4.39;67.91;101887.88;6331854;22;1874;-96
2022/03/12 01:02:19;;;;;;;;;;;;;;;4.37;68.07;101876.50;6304418;22;1268;-96
2022/03/12 01:04:48;;;;;;;;;;;;;;;4.40;67.78;101866.34;6304928;22;1293;-96
2022/03/12 01:07:18;;;;;;;;;;;;;;;4.38;67.74;101878.16;6304957;22;1418;-96
2022/03/12 01:09:49;;;;;;;;;;;;;;;4.37;67.89;101877.31;6305900;22;1275;-96
2022/03/12 01:12:18;;;;;;;;;;;;;;;4.37;67.79;101876.50;6304841;22;1158;-96
2022/03/12 01:14:44;;;;;;;;;;;;;;;4.38;67.94;101870.16;6305529;22;1545;-96
2022/03/12 01:17:14;;;;;;;;;;;;;;;4.36;67.88;101875.66;6306011;22;1594;-96
2022/03/12 01:19:41;;;;;;;;;;;;;;;4.34;68.03;101872.28;6305078;22;1923;-96
2022/03/12 01:22:18;;;;;;;;;;;;;;;4.35;67.82;101870.44;6330996;22;856;-96
2022/03/12 01:24:50;;;;;;;;;;;;;;;4.36;67.78;101865.00;6304692;22;1247;-96
2022/03/12 01:27:20;;;;;;;;;;;;;;;4.35;67.79;101860.63;6280456;22;1385;-96
2022/03/12 01:29:52;;;;;;;;;;;;;;;4.37;67.61;101863.16;6278991;22;1183;-96
2022/03/12 01:32:25;;;;;;;;;;;;;;;4.33;67.76;101858.13;6303956;22;1310;-96
2022/03/12 01:35:01;;;;;;;;;;;;;;;4.36;67.61;101858.81;6302781;22;1341;-96
2022/03/12 01:37:29;;;;;;;;;;;;;;;4.38;67.29;101857.66;6279559;22;1308;-96
2022/03/12 01:39:57;;;;;;;;;;;;;;;4.37;67.46;101850.66;6303787;22;1920;-96
2022/03/12 01:42:28;;;;;;;;;;;;;;;4.38;67.38;101848.81;6302554;22;1343;-96
2022/03/12 01:44:58;;;;;;;;;;;;;;;4.38;67.44;101859.50;6302445;22;1166;-96
2022/03/12 01:47:28;;;;;;;;;;;;;;;4.35;67.58;101847.28;6302438;22;1247;-96
2022/03/12 01:50:01;;;;;;;;;;;;;;;4.35;67.34;101838.44;6274754;22;1376;-96
2022/03/12 01:52:29;;;;;;;;;;;;;;;4.38;67.27;101840.81;6302230;22;1263;-96
2022/03/12 01:54:56;;;;;;;;;;;;;;;4.37;67.27;101842.66;6302036;22;1184;-96
2022/03/12 01:57:26;;;;;;;;;;;;;;;4.36;67.38;101838.31;6302012;22;1407;-96
2022/03/12 01:59:55;;;;;;;;;;;;;;;4.38;67.18;101835.47;6301287;22;1919;-96
2022/03/12 02:02:23;;;;;;;;;;;;;;;4.36;67.17;101834.81;6301354;22;1268;-96
2022/03/12 02:04:56;;;;;;;;;;;;;;;4.35;67.35;101833.94;6302791;22;1441;-96
2022/03/12 02:07:26;;;;;;;;;;;;;;;4.35;67.22;101833.94;6304443;22;1167;-96
2022/03/12 02:09:55;;;;;;;;;;;;;;;4.36;67.33;101832.16;6303550;22;1281;-96
2022/03/12 02:12:25;;;;;;;;;;;;;;;4.34;67.28;101826.94;6277452;22;1219;-96
2022/03/12 02:20:27;;;;;;;;;;;;;;;4.35;67.15;101836.63;6299247;22;1923;-96
2022/03/12 02:22:59;;;;;;;;;;;;;;;4.34;67.16;101829.59;6303230;22;1274;-96
2022/03/12 02:25:33;;;;;;;;;;;;;;;4.37;67.14;101831.97;6302947;22;1400;-96
2022/03/12 02:28:02;;;;;;;;;;;;;;;4.35;67.15;101823.28;6302775;22;1232;-96
2022/03/12 02:30:33;;;;;;;;;;;;;;;4.36;67.13;101826.81;6301360;22;1398;-96
2022/03/12 02:33:01;;;;;;;;;;;;;;;4.37;66.97;101825.81;6301302;22;1417;-96
2022/03/12 02:35:35;;;;;;;;;;;;;;;4.37;66.98;101826.66;6301380;22;1667;-96
2022/03/12 02:38:04;;;;;;;;;;;;;;;4.37;66.89;101825.81;6302089;22;1194;-96
2022/03/12 02:40:32;;;;;;;;;;;;;;;4.39;66.79;101826.50;6301401;22;1918;-96
2022/03/12 02:43:03;;;;;;;;;;;;;;;4.36;66.75;101826.81;6302061;22;1277;-96
2022/03/12 02:45:39;;;;;;;;;;;;;;;4.38;66.91;101822.97;6302376;22;1230;-96
2022/03/12 02:48:10;;;;;;;;;;;;;;;4.38;66.72;101822.97;6303093;22;1345;-96
2022/03/12 02:50:42;;;;;;;;;;;;;;;4.38;66.75;101819.47;6302108;22;1329;-96
2022/03/12 02:53:09;;;;;;;;;;;;;;;4.36;66.87;101824.97;6302964;22;1211;-96
2022/03/12 02:55:39;;;;;;;;;;;;;;;4.37;66.81;101823.16;6304611;22;1057;-96
2022/03/12 02:58:16;;;;;;;;;;;;;;;4.39;66.48;101819.34;6303701;22;1154;-96
2022/03/12 03:00:44;;;;;;;;;;;;;;;4.39;66.71;101822.00;6303627;22;1900;-96
2022/03/12 03:03:23;;;;;;;;;;;;;;;4.38;66.74;101822.16;6303038;22;1209;-96
2022/03/12 03:05:54;;;;;;;;;;;;;;;4.40;66.69;101820.19;6303469;22;1130;-96
2022/03/12 03:08:22;;;;;;;;;;;;;;;4.36;66.80;101816.13;6302498;22;1231;-96
2022/03/12 03:10:50;;;;;;;;;;;;;;;4.36;66.65;101816.97;6302354;22;1278;-96
2022/03/12 03:13:18;;;;;;;;;;;;;;;4.35;66.70;101817.09;6303467;22;1378;-96
2022/03/12 03:15:49;;;;;;;;;;;;;;;4.37;66.57;101813.31;6277551;22;1402;-96
2022/03/12 03:18:24;;;;;;;;;;;;;;;4.40;66.61;101806.84;6277680;22;1266;-96
2022/03/12 03:20:58;;;;;;;;;;;;;;;4.38;66.53;101814.13;6302290;22;1924;-96
2022/03/12 03:23:26;;;;;;;;;;;;;;;4.40;66.71;101809.50;6301158;22;1384;-96
2022/03/12 03:28:45;;;;;;;;;;;;;;;4.38;66.59;101804.31;6303713;22;1266;-96
2022/03/12 03:31:13;;;;;;;;;;;;;;;4.38;66.25;101806.97;6302020;22;1189;-96
2022/03/12 03:33:40;;;;;;;;;;;;;;;4.38;66.59;101806.13;6301240;22;1540;-96
2022/03/12 03:36:11;;;;;;;;;;;;;;;4.40;66.63;101809.50;6301217;22;1290;-96
2022/03/12 03:38:43;;;;;;;;;;;;;;;4.43;66.31;101809.22;6301690;22;1302;-96
2022/03/12 03:41:13;;;;;;;;;;;;;;;4.40;66.43;101801.50;6300783;22;1954;-96
2022/03/12 03:43:43;;;;;;;;;;;;;;;4.40;66.34;101802.34;6301408;22;1434;-96
2022/03/12 03:46:11;;;;;;;;;;;;;;;4.43;66.25;101806.53;6300480;22;1207;-96
2022/03/12 03:48:39;;;;;;;;;;;;;;;4.42;66.46;101802.19;6300884;22;1281;-96
2022/03/12 03:51:09;;;;;;;;;;;;;;;4.42;66.30;101811.03;6301012;22;1313;-96
2022/03/12 03:53:41;;;;;;;;;;;;;;;4.41;66.30;101808.50;6301769;22;1421;-96
2022/03/12 03:56:08;;;;;;;;;;;;;;;4.39;66.45;101806.00;6303834;22;1120;-96
2022/03/12 03:58:36;;;;;;;;;;;;;;;4.40;66.28;101804.16;6306957;22;1152;-96
2022/03/12 04:01:04;;;;;;;;;;;;;;;4.39;66.27;101795.34;6308786;22;1901;-96
2022/03/12 04:03:34;;;;;;;;;;;;;;;4.40;66.20;101799.66;6309727;22;1230;-96
2022/03/12 04:06:05;;;;;;;;;;;;;;;4.40;66.36;101797.00;6309154;22;1237;-96
2022/03/12 04:08:33;;;;;;;;;;;;;;;4.40;66.27;101804.16;6303704;22;1292;-96
2022/03/12 04:11:04;;;;;;;;;;;;;;;4.41;66.27;101804.03;6328900;22;1163;-96
2022/03/12 04:13:36;;;;;;;;;;;;;;;4.46;66.07;101809.75;6303565;22;1328;-96
2022/03/12 04:16:07;;;;;;;;;;;;;;;4.45;66.09;101802.75;6304206;22;1146;-96
2022/03/12 04:18:35;;;;;;;;;;;;;;;4.41;66.29;101800.50;6304474;22;1174;-96
2022/03/12 04:21:03;;;;;;;;;;;;;;;4.47;65.99;101803.44;6302330;22;1885;-96
2022/03/12 04:23:34;;;;;;;;;;;;;;;4.39;66.23;101799.84;6303274;22;1293;-96
2022/03/12 04:26:03;;;;;;;;;;;;;;;4.41;66.25;101798.69;6304368;22;1476;-96
2022/03/12 04:28:32;;;;;;;;;;;;;;;4.46;65.99;101804.41;6305365;22;1079;-96
2022/03/12 04:31:03;;;;;;;;;;;;;;;4.39;66.24;101803.34;6303762;22;1225;-96
2022/03/12 04:33:31;;;;;;;;;;;;;;;4.43;66.02;101799.38;6304028;22;1361;-96
2022/03/12 04:36:00;;;;;;;;;;;;;;;4.46;66.01;101800.91;6301948;22;1289;-96
2022/03/12 04:38:30;;;;;;;;;;;;;;;4.46;66.07;101800.91;6303657;22;1275;-96
2022/03/12 04:41:13;;;;;;;;;;;;;;;4.44;66.17;101797.53;6303481;22;1918;-96
2022/03/12 04:43:45;;;;;;;;;;;;;;;4.48;65.93;101796.28;6277594;22;1484;-96
2022/03/12 04:46:16;;;;;;;;;;;;;;;4.45;66.12;101801.91;6304223;22;1277;-96
2022/03/12 04:48:57;;;;;;;;;;;;;;;4.42;66.06;101796.88;6303641;22;1250;-96
2022/03/12 04:54:30;;;;;;;;;;;;;;;4.41;66.03;101798.69;6305219;22;1190;-96
2022/03/12 04:57:02;;;;;;;;;;;;;;;4.45;65.81;101796.56;6305274;22;1213;-96
2022/03/12 04:59:33;;;;;;;;;;;;;;;4.42;66.09;101805.72;6305845;22;1382;-96
2022/03/12 05:04:43;;;;;;;;;;;;;;;4.44;66.07;101800.19;6301606;22;1612;-96
2022/03/12 05:07:15;;;;;;;;;;;;;;;4.44;65.98;101800.19;6303443;22;1281;-96
2022/03/12 05:09:42;;;;;;;;;;;;;;;4.44;66.04;101805.53;6304730;22;1426;-96
2022/03/12 05:14:54;;;;;;;;;;;;;;;4.46;65.83;101800.91;6330156;22;1296;-96
2022/03/12 05:20:07;;;;;;;;;;;;;;;4.41;65.80;101798.69;6303474;22;1881;-96
2022/03/12 05:22:34;;;;;;;;;;;;;;;4.42;65.79;101799.53;6304356;22;1338;-96
2022/03/12 05:25:02;;;;;;;;;;;;;;;4.42;65.76;101794.19;6305232;22;1199;-96
2022/03/12 05:27:30;;;;;;;;;;;;;;;4.41;65.96;101787.16;6312256;22;973;-96
2022/03/12 05:29:58;;;;;;;;;;;;;;;4.45;65.87;101786.72;6304654;22;1301;-96
2022/03/12 05:32:26;;;;;;;;;;;;;;;4.45;65.73;101792.06;6304364;22;1222;-96
2022/03/12 05:40:23;;;;;;;;;;;;;;;4.52;65.53;101794.97;6302606;22;1940;-96
2022/03/12 05:42:55;;;;;;;;;;;;;;;4.47;65.82;101799.91;6304833;22;1187;-96
2022/03/12 05:45:23;;;;;;;;;;;;;;;4.44;65.87;101797.53;6305611;22;1269;-96
2022/03/12 05:47:56;;;;;;;;;;;;;;;4.43;65.78;101798.53;6304892;22;1264;-96
2022/03/12 05:50:28;;;;;;;;;;;;;;;4.46;65.76;101800.91;6303855;22;1378;-96
2022/03/12 05:52:58;;;;;;;;;;;;;;;4.47;65.73;101794.56;6303416;22;1351;-96
2022/03/12 05:55:27;;;;;;;;;;;;;;;4.46;65.46;101793.75;6302493;22;1289;-96
2022/03/12 05:57:56;;;;;;;;;;;;;;;4.45;65.73;101801.91;6304351;22;1454;-96
2022/03/12 06:00:26;;;;;;;;;;;;;;;4.43;65.82;101801.19;6303006;22;1881;-96
2022/03/12 06:03:04;;;;;;;;;;;;;;;4.48;65.65;101796.28;6302393;22;1175;-96
2022/03/12 06:05:43;;;;;;;;;;;;;;;4.42;65.79;101796.88;6302815;22;1333;-96
2022/03/12 06:08:21;;;;;;;;;;;;;;;4.48;65.63;101793.59;6303479;22;1327;-96
2022/03/12 06:10:58;;;;;;;;;;;;;;;4.50;65.53;101794.28;6302354;22;1170;-96
2022/03/12 06:16:10;;;;;;;;;;;;;;;4.47;65.62;101799.91;6303001;22;1574;-96
2022/03/12 06:18:38;;;;;;;;;;;;;;;4.47;65.53;101792.78;6302484;22;1222;-96
2022/03/12 06:21:08;;;;;;;;;;;;;;;4.52;65.40;101800.31;6302579;22;1901;-96
2022/03/12 06:23:36;;;;;;;;;;;;;;;4.52;65.39;101798.47;6276417;22;1469;-96
2022/03/12 06:26:14;;;;;;;;;;;;;;;4.46;65.66;101804.41;6303468;22;1452;-96
2022/03/12 06:28:43;;;;;;;;;;;;;;;4.49;65.51;101793.44;6302025;22;1335;-96
2022/03/12 06:31:12;;;;;;;;;;;;;;;4.50;65.38;101800.47;6301978;22;1183;-96
2022/03/12 06:33:41;;;;;;;;;;;;;;;4.50;65.58;101799.59;6300874;22;1391;-96
2022/03/12 06:36:09;;;;;;;;;;;;;;;4.49;65.61;101792.59;6301751;22;1521;-96
2022/03/12 06:38:42;;;;;;;;;;;;;;;4.51;65.51;101787.97;6301578;22;1255;-96
2022/03/12 06:41:09;;;;;;;;;;;;;;;4.46;65.63;101796.41;6300170;22;1869;-96
2022/03/12 06:43:42;;;;;;;;;;;;;;;4.48;65.48;101791.78;6299938;22;1217;-96
2022/03/12 06:46:14;;;;;;;;;;;;;;;4.48;65.54;101796.28;6300824;22;1220;-96
2022/03/12 06:48:42;;;;;;;;;;;;;;;4.53;65.29;101799.34;6298082;22;1211;-97
2022/03/12 06:51:10;;;;;;;;;;;;;;;4.49;65.47;101792.59;6297174;22;1414;-96
2022/03/12 06:53:37;;;;;;;;;;;;;;;4.51;65.41;101810.16;6297087;22;1377;-96
2022/03/12 06:56:04;;;;;;;;;;;;;;;4.51;65.37;101795.97;6296791;22;1214;-96
2022/03/12 06:58:31;;;;;;;;;;;;;;;4.49;65.39;101808.59;6295582;22;1343;-96
2022/03/12 07:00:58;;;;;;;;;;;;;;;4.54;65.44;101795.66;6294454;22;1920;-96
2022/03/12 07:03:25;;;;;;;;;;;;;;;4.46;65.68;101799.06;6293413;22;1315;-96
2022/03/12 07:05:52;;;;;;;;;;;;;;;4.47;65.66;101794.56;6295155;22;1305;-96
2022/03/12 07:08:22;;;;;;;;;;;;;;;4.44;65.70;101800.19;6295078;22;1543;-96
2022/03/12 07:10:49;;;;;;;;;;;;;;;4.52;65.38;101800.31;6295202;22;1166;-96
2022/03/12 07:13:18;;;;;;;;;;;;;;;4.53;65.34;101802.84;6292390;22;1412;-96
2022/03/12 07:15:45;;;;;;;;;;;;;;;4.46;65.60;101800.91;6292892;22;1235;-96
2022/03/12 07:18:12;;;;;;;;;;;;;;;4.51;65.37;101801.31;6292493;22;1265;-96
2022/03/12 07:20:38;;;;;;;;;;;;;;;4.50;65.44;101800.47;6292594;22;1913;-96
2022/03/12 07:23:05;;;;;;;;;;;;;;;4.47;65.51;101807.91;6290413;22;1229;-96
2022/03/12 07:25:32;;;;;;;;;;;;;;;4.48;65.53;101810.44;6288331;22;1285;-96
2022/03/12 07:28:00;;;;;;;;;;;;;;;4.51;65.55;101811.97;6286978;22;1379;-96
2022/03/12 07:30:26;;;;;;;;;;;;;;;4.53;65.26;101815.34;6286282;22;1260;-96
2022/03/12 07:32:53;;;;;;;;;;;;;;;4.52;65.46;101811.81;6286517;22;1271;-97
2022/03/12 07:35:19;;;;;;;;;;;;;;;4.54;65.44;101819.69;6286853;22;1284;-96
2022/03/12 07:37:46;;;;;;;;;;;;;;;4.52;65.34;101821.66;6286285;22;1302;-96
2022/03/12 07:40:12;;;;;;;;;;;;;;;4.47;65.62;101821.25;6286302;22;1900;-96
2022/03/12 07:42:39;;;;;;;;;;;;;;;4.48;65.51;101820.28;6285615;22;1299;-96
2022/03/12 07:45:05;;;;;;;;;;;;;;;4.49;65.66;101820.13;6285405;22;1233;-96
2022/03/12 07:47:33;;;;;;;;;;;;;;;4.52;65.42;101818.97;6285718;22;1172;-96
2022/03/12 07:49:59;;;;;;;;;;;;;;;4.55;65.45;101824.03;6286164;22;1363;-96
2022/03/12 07:52:28;;;;;;;;;;;;;;;4.58;65.31;101822.88;6280481;22;1539;-96
2022/03/12 07:54:54;;;;;;;;;;;;;;;4.62;65.23;101832.25;6256482;22;1293;-96
2022/03/12 07:57:26;;;;;;;;;;;;;;;4.56;65.50;101820.38;6256805;22;1248;-96
2022/03/12 07:59:53;;;;;;;;;;;;;;;4.52;65.69;101830.50;6256408;22;1274;-96
2022/03/12 08:02:19;;;;;;;;;;;;;;;4.54;65.54;101825.84;6255999;22;2001;-96
2022/03/12 08:04:46;;;;;;;;;;;;;;;4.55;65.61;101826.69;6255684;22;1442;-96
2022/03/12 08:07:13;;;;;;;;;;;;;;;4.51;65.68;101834.16;6256361;22;1175;-96
2022/03/12 08:09:39;;;;;;;;;;;;;;;4.50;65.67;101835.16;6255861;22;1305;-96
2022/03/12 08:12:06;;;;;;;;;;;;;;;4.52;65.63;101841.16;6254607;22;1321;-96
2022/03/12 08:14:32;;;;;;;;;;;;;;;4.51;65.58;101833.31;6255269;22;1155;-96
2022/03/12 08:16:59;;;;;;;;;;;;;;;4.59;65.51;101835.22;6255055;22;1271;-96
2022/03/12 08:19:25;;;;;;;;;;;;;;;4.58;65.63;101842.41;6254561;22;1381;-96
2022/03/12 08:21:52;;;;;;;;;;;;;;;4.62;65.47;101841.13;6254983;22;1927;-96
2022/03/12 08:24:19;;;;;;;;;;;;;;;4.57;65.56;101838.06;6255620;22;1158;-96
2022/03/12 08:26:45;;;;;;;;;;;;;;;4.57;65.59;101831.88;6255977;22;1216;-96
2022/03/12 08:29:12;;;;;;;;;;;;;;;4.60;65.37;101828.91;6256100;22;1301;-96
2022/03/12 08:31:38;;;;;;;;;;;;;;;4.59;65.60;101813.88;6257464;22;1292;-96
2022/03/12 08:34:05;;;;;;;;;;;;;;;4.58;65.76;101826.38;6258692;22;1175;-96
2022/03/12 08:36:32;;;;;;;;;;;;;;;4.62;65.71;101822.44;6259252;22;1139;-96
2022/03/12 08:38:58;;;;;;;;;;;;;;;4.64;65.57;101820.44;6260037;22;1172;-96
2022/03/12 08:41:25;;;;;;;;;;;;;;;4.63;65.62;101817.94;6260341;22;1917;-96
2022/03/12 08:43:52;;;;;;;;;;;;;;;4.63;65.55;101818.78;6262739;22;1273;-96
2022/03/12 08:46:18;;;;;;;;;;;;;;;4.66;65.65;101822.97;6264048;22;1221;-96
2022/03/12 08:48:45;;;;;;;;;;;;;;;4.67;65.81;101816.66;6263814;22;1352;-96
2022/03/12 08:51:12;;;;;;;;;;;;;;;4.64;65.90;101811.59;6264175;22;1351;-96
2022/03/12 08:53:39;;;;;;;;;;;;;;;4.72;65.37;101812.53;6265400;22;1266;-96
2022/03/12 08:56:08;;;;;;;;;;;;;;;4.71;65.62;101815.38;6265536;22;1282;-96
2022/03/12 08:58:34;;;;;;;;;;;;;;;4.69;65.61;101812.00;6267085;22;1232;-96
2022/03/12 09:01:01;;;;;;;;;;;;;;;4.71;65.62;101804.69;6269162;22;1951;-96
2022/03/12 09:03:30;;;;;;;;;;;;;;;4.71;65.71;101808.19;6271130;22;1263;-96
2022/03/12 09:06:00;;;;;;;;;;;;;;;4.76;65.54;101821.06;6298114;22;1206;-96
2022/03/12 09:08:28;;;;;;;;;;;;;;;4.76;65.73;101819.28;6249958;22;1393;-96
2022/03/12 09:11:00;;;;;;;;;;;;;;;4.78;65.63;101814.59;6301773;22;866;-96
2022/03/12 09:13:36;;;;;;;;;;;;;;;4.81;65.59;101804.63;6275381;22;1273;-96
2022/03/12 09:16:16;;;;;;;;;;;;;;;4.80;65.68;101810.97;6274087;22;1236;-96
2022/03/12 09:18:48;;;;;;;;;;;;;;;4.78;65.73;101808.44;6276008;22;1170;-96
2022/03/12 23:17:02;;;;;;;;;;;;;;;6.31;69.84;101626.94;6275071;22;786;-96
2022/03/12 23:26:20;;;;;;;;;;;;;;;6.23;70.21;101616.22;6275170;23;758;-96
2022/03/12 23:57:37;;;;;;;;;;;;;;;6.06;69.64;101618.06;6273551;23;592;-96
